Time;durP1;ratioP1;P1;durP2;ratioP2;P2;SDS_P1;SDS_P2;PMS_P1;PMS_P2;Temp;Humidity;BMP_temperature;BMP_pressure;BME280_temperature;BME280_humidity;BME280_pressure;Samples;Min_cycle;Max_cycle;Signal;HPM_P1;HPM_P2
2021/12/04 00:00:02;;;;;;;5.40;1.10;;;21.00;99.90;;;;;;5067520;28;20224;-73
2021/12/04 00:02:33;;;;;;;5.40;1.30;;;21.00;99.90;;;;;;5067023;28;20673;-74
2021/12/04 00:05:05;;;;;;;6.80;1.38;;;21.00;99.90;;;;;;5065104;28;20193;-73
2021/12/04 00:07:37;;;;;;;6.70;1.30;;;21.00;99.90;;;;;;5065094;28;20185;-72
2021/12/04 00:10:09;;;;;;;7.32;1.30;;;21.00;99.90;;;;;;5068033;28;20200;-74
2021/12/04 00:12:42;;;;;;;6.90;1.52;;;20.90;99.90;;;;;;5069040;28;20192;-76
2021/12/04 00:15:13;;;;;;;7.28;1.40;;;21.00;99.90;;;;;;5070849;28;20200;-74
2021/12/04 00:17:43;;;;;;;3.40;1.15;;;21.00;99.90;;;;;;5065956;28;20189;-75
2021/12/04 00:20:14;;;;;;;6.15;1.20;;;21.00;99.90;;;;;;5072692;28;20829;-74
2021/12/04 00:22:45;;;;;;;9.00;1.63;;;21.00;99.90;;;;;;5068793;28;20205;-75
2021/12/04 00:25:16;;;;;;;6.80;1.42;;;20.90;99.90;;;;;;5065288;28;20288;-74
2021/12/04 00:27:48;;;;;;;9.82;1.60;;;20.90;99.90;;;;;;5071258;28;20197;-74
2021/12/04 00:30:19;;;;;;;8.50;1.48;;;20.80;99.90;;;;;;5066640;28;20189;-74
2021/12/04 00:32:59;;;;;;;7.45;1.55;;;20.80;99.90;;;;;;5069542;28;20205;-75
2021/12/04 00:35:43;;;;;;;7.82;1.63;;;20.80;99.90;;;;;;5065450;28;20242;-74
2021/12/04 00:49:24;;;;;;;10.68;2.00;;;20.80;99.90;;;;;;5061256;28;20201;-73
2021/12/04 00:51:58;;;;;;;12.52;2.08;;;20.90;99.90;;;;;;5069982;28;20185;-73
2021/12/04 00:54:30;;;;;;;9.90;2.15;;;21.00;99.90;;;;;;5072758;28;20280;-74
2021/12/04 00:57:01;;;;;;;10.48;2.00;;;21.10;99.90;;;;;;5073011;28;20558;-75
2021/12/04 00:59:33;;;;;;;10.35;1.92;;;21.10;99.90;;;;;;5064845;28;20220;-75
2021/12/04 01:02:04;;;;;;;11.77;2.15;;;21.20;99.90;;;;;;5072901;28;20266;-73
2021/12/04 01:04:35;;;;;;;12.10;2.22;;;21.30;99.90;;;;;;5062547;28;20189;-77
2021/12/04 01:07:07;;;;;;;11.10;1.77;;;21.30;99.90;;;;;;5064460;28;20645;-75
2021/12/04 01:09:37;;;;;;;12.65;2.00;;;21.20;99.90;;;;;;5063784;28;20273;-75
2021/12/04 01:12:08;;;;;;;10.45;1.83;;;21.10;99.90;;;;;;5068241;28;20302;-75
2021/12/04 01:14:41;;;;;;;9.77;1.80;;;21.20;99.90;;;;;;5067621;28;20189;-75
2021/12/04 01:17:12;;;;;;;9.95;2.00;;;21.10;99.90;;;;;;5064704;28;20185;-75
2021/12/04 01:19:43;;;;;;;9.80;2.03;;;21.10;99.90;;;;;;5065291;28;20212;-74
2021/12/04 01:22:19;;;;;;;8.57;2.03;;;21.00;99.90;;;;;;5070513;28;20213;-74
2021/12/04 01:24:50;;;;;;;10.88;2.30;;;21.00;99.90;;;;;;5061271;28;20195;-75
2021/12/04 01:27:22;;;;;;;6.47;1.55;;;21.00;99.90;;;;;;5063219;28;20546;-75
2021/12/04 01:29:55;;;;;;;11.50;1.98;;;21.00;99.90;;;;;;5064449;28;20185;-74
2021/12/04 01:32:25;;;;;;;7.68;1.88;;;20.90;99.90;;;;;;5071187;28;20280;-73
2021/12/04 01:34:56;;;;;;;5.82;1.60;;;20.90;99.90;;;;;;5063958;28;20215;-73
2021/12/04 01:37:27;;;;;;;12.45;1.92;;;21.00;99.90;;;;;;5055801;28;20205;-73
2021/12/04 01:40:00;;;;;;;10.52;2.42;;;21.00;99.90;;;;;;5072952;28;20703;-78
2021/12/04 01:42:34;;;;;;;6.68;2.08;;;21.10;99.90;;;;;;5063420;28;20209;-73
2021/12/04 01:45:08;;;;;;;8.77;1.85;;;21.20;99.90;;;;;;5064231;28;20219;-75
2021/12/04 01:47:39;;;;;;;11.90;2.15;;;21.10;99.90;;;;;;5063423;28;20784;-78
2021/12/04 01:50:11;;;;;;;6.15;1.70;;;21.10;99.90;;;;;;5056598;28;20201;-75
2021/12/04 01:52:42;;;;;;;8.25;2.15;;;21.10;99.90;;;;;;5068220;28;20239;-75
2021/12/04 01:55:12;;;;;;;8.25;2.00;;;21.10;99.90;;;;;;5066799;28;20193;-75
2021/12/04 01:57:43;;;;;;;9.80;2.10;;;21.20;99.90;;;;;;5058663;28;20219;-76
2021/12/04 02:00:16;;;;;;;6.28;1.80;;;21.20;99.90;;;;;;5062764;28;20278;-75
2021/12/04 02:02:47;;;;;;;8.60;2.17;;;21.20;99.90;;;;;;5060301;28;20223;-76
2021/12/04 02:05:18;;;;;;;5.78;1.80;;;21.30;99.90;;;;;;5061922;28;20199;-76
2021/12/04 02:07:49;;;;;;;6.45;1.60;;;21.40;99.90;;;;;;5061592;28;20185;-76
2021/12/04 02:10:20;;;;;;;7.25;1.65;;;21.40;99.90;;;;;;5061189;28;20193;-75
2021/12/04 02:12:51;;;;;;;5.75;1.40;;;21.30;99.90;;;;;;5061175;28;20194;-78
2021/12/04 02:15:23;;;;;;;4.47;1.20;;;21.30;99.90;;;;;;5071371;28;20601;-75
2021/12/04 02:17:54;;;;;;;8.38;1.40;;;21.30;99.90;;;;;;5058738;28;20190;-75
2021/12/04 02:20:28;;;;;;;4.15;1.30;;;21.40;99.90;;;;;;5063973;28;20184;-75
2021/12/04 02:22:59;;;;;;;7.10;1.50;;;21.40;99.90;;;;;;5061254;28;20295;-75
2021/12/04 02:25:33;;;;;;;5.53;1.48;;;21.50;99.90;;;;;;5068778;28;20193;-74
2021/12/04 02:28:05;;;;;;;4.55;1.25;;;21.60;99.90;;;;;;5060086;28;20221;-76
2021/12/04 02:30:39;;;;;;;4.70;1.13;;;21.70;99.90;;;;;;5059868;28;20190;-76
2021/12/04 02:33:13;;;;;;;6.40;1.60;;;21.60;99.90;;;;;;5059931;28;20209;-76
2021/12/04 02:35:49;;;;;;;5.93;1.40;;;21.60;99.90;;;;;;5064671;28;20215;-75
2021/12/04 02:38:22;;;;;;;4.53;1.20;;;21.80;99.90;;;;;;5069514;28;20261;-76
2021/12/04 02:40:53;;;;;;;3.67;1.30;;;21.90;99.90;;;;;;5068202;28;20193;-78
2021/12/04 02:43:24;;;;;;;5.57;1.20;;;22.00;99.90;;;;;;5059985;28;20216;-77
2021/12/04 02:45:56;;;;;;;2.83;1.05;;;22.00;99.90;;;;;;5067549;28;20945;-74
2021/12/04 02:48:26;;;;;;;5.40;1.33;;;22.00;99.90;;;;;;5069371;28;20318;-75
2021/12/04 02:50:59;;;;;;;3.88;1.40;;;22.00;99.90;;;;;;5068090;28;20232;-75
2021/12/04 02:53:30;;;;;;;4.68;1.42;;;22.00;99.90;;;;;;5065797;28;20201;-76
2021/12/04 02:56:00;;;;;;;6.93;1.17;;;22.10;99.90;;;;;;5071455;28;20189;-75
2021/12/04 02:58:31;;;;;;;7.00;1.30;;;22.20;99.90;;;;;;5054828;28;20194;-77
2021/12/04 03:01:03;;;;;;;5.97;1.40;;;22.10;99.90;;;;;;5068262;28;20189;-77
2021/12/04 03:03:33;;;;;;;5.90;1.50;;;22.20;99.90;;;;;;5071435;28;20331;-77
2021/12/04 03:06:06;;;;;;;10.65;2.30;;;22.10;99.90;;;;;;5058669;28;20189;-76
2021/12/04 03:08:37;;;;;;;5.53;1.30;;;22.00;99.90;;;;;;5074681;28;20189;-77
2021/12/04 03:11:08;;;;;;;6.60;1.30;;;22.00;99.90;;;;;;5067697;28;20251;-78
2021/12/04 03:13:42;;;;;;;5.03;1.30;;;22.00;99.90;;;;;;5065574;28;20197;-79
2021/12/04 03:16:13;;;;;;;5.97;1.20;;;22.00;99.90;;;;;;5071474;28;20286;-75
2021/12/04 03:18:44;;;;;;;7.97;1.88;;;21.90;99.90;;;;;;5074883;28;20247;-76
2021/12/04 03:21:16;;;;;;;6.07;1.30;;;21.90;99.90;;;;;;5066525;28;20189;-76
2021/12/04 03:23:56;;;;;;;6.22;1.40;;;21.80;99.90;;;;;;5064770;28;20208;-77
2021/12/04 03:26:27;;;;;;;5.88;1.40;;;21.80;99.90;;;;;;5068663;28;20189;-79
2021/12/04 03:29:01;;;;;;;9.32;1.50;;;21.60;99.90;;;;;;5071839;28;20185;-79
2021/12/04 03:31:45;;;;;;;6.10;1.55;;;21.50;99.90;;;;;;5070647;28;20196;-78
2021/12/04 03:40:08;;;;;;;6.95;1.48;;;21.50;99.90;;;;;;5043595;28;20573;-78
2021/12/04 03:42:41;;;;;;;8.15;1.75;;;21.40;99.90;;;;;;5066267;28;20699;-75
2021/12/04 03:45:13;;;;;;;7.50;1.70;;;21.30;99.90;;;;;;5071972;28;20290;-77
2021/12/04 03:47:46;;;;;;;6.65;1.85;;;21.30;99.90;;;;;;5074335;28;20204;-76
2021/12/04 03:50:17;;;;;;;6.28;1.70;;;21.40;99.90;;;;;;5070793;28;20315;-76
2021/12/04 03:52:50;;;;;;;4.38;1.40;;;21.40;99.90;;;;;;5066478;28;20185;-76
2021/12/04 03:55:20;;;;;;;5.38;1.80;;;21.40;99.90;;;;;;5065995;28;20189;-78
2021/12/04 03:57:51;;;;;;;5.93;1.60;;;21.60;99.90;;;;;;5074277;28;20224;-79
2021/12/04 04:00:28;;;;;;;8.02;1.65;;;21.70;99.90;;;;;;5066379;28;20234;-77
2021/12/04 04:03:00;;;;;;;6.53;1.55;;;21.80;99.90;;;;;;5073674;28;20213;-76
2021/12/04 04:05:30;;;;;;;4.82;1.45;;;21.80;99.90;;;;;;5067437;28;20267;-76
2021/12/04 04:08:03;;;;;;;8.52;1.80;;;21.80;99.90;;;;;;5074088;28;20197;-78
2021/12/04 04:10:34;;;;;;;8.57;1.58;;;21.80;99.90;;;;;;5073658;28;20602;-75
2021/12/04 04:13:08;;;;;;;6.10;1.85;;;21.80;99.90;;;;;;5064890;28;20773;-76
2021/12/04 04:15:38;;;;;;;7.95;1.92;;;21.80;99.90;;;;;;5068696;28;20188;-75
2021/12/04 04:18:09;;;;;;;9.15;1.90;;;21.80;99.90;;;;;;5067985;28;20247;-77
2021/12/04 04:20:40;;;;;;;8.20;1.98;;;21.60;99.90;;;;;;5073156;28;20193;-73
2021/12/04 04:23:14;;;;;;;8.55;2.28;;;21.60;99.90;;;;;;5068972;28;20224;-81
2021/12/04 04:25:45;;;;;;;8.30;2.25;;;21.50;99.90;;;;;;5073207;28;20267;-79
2021/12/04 04:28:15;;;;;;;9.63;2.10;;;21.50;99.90;;;;;;5073499;28;20189;-76
2021/12/04 04:30:46;;;;;;;9.57;2.42;;;21.40;99.90;;;;;;5072951;28;20550;-79
2021/12/04 04:33:17;;;;;;;10.70;2.38;;;21.30;99.90;;;;;;5068808;28;20251;-77
2021/12/04 04:36:04;;;;;;;9.18;2.50;;;21.30;99.90;;;;;;5062500;28;20553;-75
2021/12/04 04:38:44;;;;;;;11.05;2.53;;;21.30;99.90;;;;;;5068088;28;20667;-79
2021/12/04 04:58:20;;;;;;;8.55;2.45;;;20.90;99.90;;;;;;5061270;28;20197;-76
2021/12/04 05:01:15;;;;;;;9.90;2.15;;;20.90;99.90;;;;;;5067361;28;20211;-79
2021/12/04 05:12:19;;;;;;;9.52;2.50;;;20.70;99.90;;;;;;5073221;28;20600;-75
2021/12/04 05:14:54;;;;;;;8.05;2.70;;;20.70;99.90;;;;;;5060652;28;20669;-75
2021/12/04 05:17:51;;;;;;;8.40;3.20;;;20.60;99.90;;;;;;5071004;28;20548;-80
2021/12/04 05:20:33;;;;;;;8.80;2.70;;;20.60;99.90;;;;;;5072513;28;20196;-76
2021/12/04 05:23:03;;;;;;;12.05;2.95;;;20.60;99.90;;;;;;5072385;28;20291;-77
2021/12/04 05:25:37;;;;;;;8.10;3.30;;;20.60;99.90;;;;;;5064625;28;20212;-79
2021/12/04 05:28:11;;;;;;;10.68;3.70;;;20.60;99.90;;;;;;5072837;28;20193;-78
2021/12/04 05:30:42;;;;;;;13.13;3.30;;;20.60;99.90;;;;;;5071627;28;20189;-78
2021/12/04 05:33:16;;;;;;;16.27;4.15;;;20.60;99.90;;;;;;5063369;28;20196;-76
2021/12/04 05:35:48;;;;;;;13.02;3.70;;;20.60;99.90;;;;;;5064903;28;20189;-75
2021/12/04 05:38:20;;;;;;;10.82;4.82;;;20.60;99.90;;;;;;5072874;28;20280;-77
2021/12/04 05:40:51;;;;;;;11.43;4.15;;;20.60;99.90;;;;;;5065272;28;20185;-75
2021/12/04 05:43:25;;;;;;;11.55;4.22;;;20.50;99.90;;;;;;5071898;28;20684;-75
2021/12/04 05:46:01;;;;;;;16.65;5.05;;;20.50;99.90;;;;;;5060689;28;20308;-75
2021/12/04 05:48:38;;;;;;;18.48;5.07;;;20.40;99.90;;;;;;5063618;28;20653;-74
2021/12/04 05:54:02;;;;;;;10.63;4.75;;;20.40;99.90;;;;;;5065656;28;20580;-77
2021/12/04 05:56:35;;;;;;;13.85;5.03;;;20.40;99.90;;;;;;5070346;28;20273;-76
2021/12/04 05:59:08;;;;;;;14.10;4.90;;;20.30;99.90;;;;;;5072415;28;20224;-75
2021/12/04 06:01:40;;;;;;;13.50;4.80;;;20.30;99.90;;;;;;5062281;28;20196;-74
2021/12/04 06:04:10;;;;;;;15.13;5.07;;;20.30;99.90;;;;;;5066825;28;20212;-74
2021/12/04 06:06:43;;;;;;;14.38;4.80;;;20.30;99.90;;;;;;5071931;28;20628;-75
2021/12/04 06:09:14;;;;;;;11.38;4.72;;;20.20;99.90;;;;;;5072250;28;20546;-76
2021/12/04 06:11:45;;;;;;;15.20;5.20;;;20.20;99.90;;;;;;5064031;28;20641;-74
2021/12/04 06:14:18;;;;;;;15.70;5.22;;;20.20;99.90;;;;;;5065780;28;20243;-74
2021/12/04 06:16:48;;;;;;;13.52;5.55;;;20.30;99.90;;;;;;5071658;28;20193;-72
2021/12/04 06:22:37;;;;;;;17.20;5.25;;;20.20;99.90;;;;;;5072240;28;20193;-74
2021/12/04 06:25:05;;;;;;;15.20;5.63;;;20.30;99.90;;;;;;5065501;28;20263;-74
2021/12/04 06:27:36;;;;;;;14.23;5.88;;;20.30;99.90;;;;;;5063751;28;20190;-78
2021/12/04 06:30:10;;;;;;;9.75;5.03;;;20.30;99.90;;;;;;5072091;28;20181;-74
2021/12/04 06:32:41;;;;;;;13.40;5.28;;;20.20;99.90;;;;;;5063664;28;20193;-76
2021/12/04 06:35:13;;;;;;;15.15;4.90;;;20.20;99.90;;;;;;5063553;28;20189;-73
2021/12/04 06:37:44;;;;;;;13.75;5.75;;;20.10;99.90;;;;;;5063400;28;20190;-74
2021/12/04 06:40:16;;;;;;;15.25;5.40;;;20.10;99.90;;;;;;5071584;28;20185;-74
2021/12/04 06:42:47;;;;;;;15.02;5.30;;;20.10;99.90;;;;;;5066217;28;20585;-75
2021/12/04 06:45:20;;;;;;;11.95;4.72;;;20.20;99.90;;;;;;5072939;28;20213;-77
2021/12/04 06:47:53;;;;;;;14.77;5.20;;;20.20;99.90;;;;;;5075446;28;20189;-77
2021/12/04 06:50:31;;;;;;;11.95;5.30;;;20.20;99.90;;;;;;5075433;28;20197;-73
2021/12/04 06:53:11;;;;;;;13.68;5.50;;;20.10;99.90;;;;;;5075612;28;20667;-75
2021/12/04 06:55:44;;;;;;;14.98;6.22;;;20.10;99.90;;;;;;5067302;28;20192;-73
2021/12/04 06:58:15;;;;;;;12.63;5.75;;;20.00;99.90;;;;;;5067426;28;20204;-75
2021/12/04 07:00:49;;;;;;;16.50;6.00;;;20.00;99.90;;;;;;5064925;28;20202;-74
2021/12/04 07:03:20;;;;;;;16.27;6.18;;;20.00;99.90;;;;;;5075462;28;20652;-74
2021/12/04 07:05:51;;;;;;;10.98;5.20;;;20.00;99.90;;;;;;5074958;28;20185;-75
2021/12/04 07:08:22;;;;;;;12.82;5.80;;;19.90;99.90;;;;;;5075005;28;20201;-75
2021/12/04 07:10:53;;;;;;;14.43;5.90;;;19.80;99.90;;;;;;5075164;28;20683;-73
2021/12/04 07:13:24;;;;;;;11.77;5.40;;;19.80;99.90;;;;;;5075260;28;20216;-73
2021/12/04 07:16:02;;;;;;;13.48;6.20;;;19.80;99.90;;;;;;5066061;28;20682;-74
2021/12/04 07:18:34;;;;;;;15.27;6.13;;;19.90;99.90;;;;;;5070081;28;20201;-73
2021/12/04 07:21:05;;;;;;;14.15;6.03;;;19.90;99.90;;;;;;5075062;28;20189;-73
2021/12/04 07:23:36;;;;;;;14.23;6.43;;;20.00;99.90;;;;;;5075114;28;20221;-74
2021/12/04 07:26:07;;;;;;;13.07;5.78;;;20.00;99.90;;;;;;5074821;28;20575;-75
2021/12/04 07:28:39;;;;;;;12.85;6.20;;;20.00;99.90;;;;;;5075079;28;20197;-73
2021/12/04 07:31:11;;;;;;;12.63;6.20;;;19.90;99.90;;;;;;5066793;28;20649;-76
2021/12/04 07:33:42;;;;;;;13.20;6.20;;;19.90;99.90;;;;;;5074723;28;20197;-77
2021/12/04 07:36:13;;;;;;;12.98;6.13;;;19.90;99.90;;;;;;5074333;28;20196;-75
2021/12/04 07:38:43;;;;;;;14.95;6.30;;;19.90;99.90;;;;;;5074779;28;20645;-74
2021/12/04 07:41:14;;;;;;;13.20;6.82;;;19.90;99.90;;;;;;5074762;28;20247;-75
2021/12/04 07:43:45;;;;;;;12.25;6.22;;;19.80;99.90;;;;;;5066540;28;20217;-74
2021/12/04 07:46:18;;;;;;;11.75;5.88;;;19.90;99.90;;;;;;5066064;28;20632;-76
2021/12/04 07:48:49;;;;;;;12.80;6.25;;;19.90;99.90;;;;;;5070073;28;20193;-73
2021/12/04 07:51:19;;;;;;;17.55;6.70;;;19.80;99.90;;;;;;5066630;28;20189;-75
2021/12/04 07:53:50;;;;;;;13.68;6.93;;;19.90;99.90;;;;;;5074241;28;20197;-74
2021/12/04 07:56:21;;;;;;;14.63;6.93;;;19.80;99.90;;;;;;5071100;28;20181;-73
2021/12/04 07:58:52;;;;;;;13.48;7.57;;;19.80;99.90;;;;;;5063079;28;20234;-77
2021/12/04 08:01:24;;;;;;;15.30;7.40;;;19.80;99.90;;;;;;5066507;28;20188;-74
2021/12/04 08:03:55;;;;;;;14.55;7.10;;;19.80;99.90;;;;;;5066042;28;20209;-74
2021/12/04 08:06:26;;;;;;;15.50;7.45;;;19.70;99.90;;;;;;5066474;28;20185;-77
2021/12/04 08:08:58;;;;;;;14.85;7.45;;;19.70;99.90;;;;;;5074059;28;20200;-78
2021/12/04 08:11:29;;;;;;;13.48;7.70;;;19.70;99.90;;;;;;5066959;28;20648;-74
2021/12/04 08:14:00;;;;;;;14.75;7.32;;;19.70;99.90;;;;;;5073949;28;20204;-74
2021/12/04 08:16:36;;;;;;;29.80;8.60;;;19.60;99.90;;;;;;5066582;28;20185;-74
2021/12/04 08:19:07;;;;;;;16.58;7.65;;;19.60;99.90;;;;;;5066107;28;20260;-76
2021/12/04 08:21:38;;;;;;;16.33;7.28;;;19.50;99.90;;;;;;5074236;28;20200;-73
2021/12/04 08:24:09;;;;;;;17.55;7.50;;;19.50;99.90;;;;;;5073791;28;20213;-74
2021/12/04 08:26:41;;;;;;;17.33;8.10;;;19.40;99.90;;;;;;5073799;28;20192;-74
2021/12/04 08:29:12;;;;;;;18.55;7.88;;;19.40;99.90;;;;;;5070502;28;20208;-74
2021/12/04 08:31:46;;;;;;;15.48;8.10;;;19.40;99.90;;;;;;5069823;28;20250;-74
2021/12/04 08:34:18;;;;;;;12.80;7.80;;;19.40;99.90;;;;;;5069889;28;20271;-76
2021/12/04 08:36:50;;;;;;;17.52;8.70;;;19.40;99.90;;;;;;5065994;28;20185;-75
2021/12/04 08:39:22;;;;;;;16.40;8.10;;;19.40;99.90;;;;;;5070955;28;20185;-73
2021/12/04 08:41:52;;;;;;;18.75;8.50;;;19.40;99.90;;;;;;5073446;28;20268;-74
2021/12/04 08:44:23;;;;;;;17.55;8.57;;;19.50;99.90;;;;;;5066358;28;20237;-75
2021/12/04 08:46:56;;;;;;;20.55;8.57;;;19.40;99.90;;;;;;5068039;28;20223;-74
2021/12/04 08:49:29;;;;;;;16.60;8.32;;;19.40;99.90;;;;;;5073227;28;20221;-77
2021/12/04 08:52:00;;;;;;;16.40;8.25;;;19.40;99.90;;;;;;5071564;28;20645;-73
2021/12/04 08:54:31;;;;;;;18.90;8.35;;;19.40;99.90;;;;;;5068275;28;20277;-75
2021/12/04 08:57:06;;;;;;;19.15;7.65;;;19.40;99.90;;;;;;5065319;28;20540;-78
2021/12/04 08:59:37;;;;;;;22.13;7.82;;;19.40;99.90;;;;;;5065249;28;20239;-76
2021/12/04 09:02:10;;;;;;;17.40;7.97;;;19.40;99.90;;;;;;5072529;28;20185;-75
2021/12/04 09:04:41;;;;;;;15.55;8.00;;;19.50;99.90;;;;;;5067114;28;20213;-75
2021/12/04 09:07:12;;;;;;;14.55;7.25;;;19.40;99.90;;;;;;5067970;28;20189;-75
2021/12/04 09:09:43;;;;;;;18.70;7.18;;;19.50;99.90;;;;;;5057458;28;20186;-77
2021/12/04 09:12:15;;;;;;;19.75;7.85;;;19.50;99.90;;;;;;5069577;28;20235;-76
2021/12/04 09:14:50;;;;;;;13.27;7.25;;;19.50;99.90;;;;;;5062889;28;20588;-73
2021/12/04 09:17:25;;;;;;;19.48;7.50;;;19.50;99.90;;;;;;5070385;28;20196;-73
2021/12/04 09:19:56;;;;;;;18.63;7.90;;;19.50;99.90;;;;;;5059965;28;20629;-75
2021/12/04 09:22:28;;;;;;;18.42;7.10;;;19.50;99.90;;;;;;5062302;28;20248;-74
2021/12/04 09:24:59;;;;;;;17.70;7.20;;;19.50;99.90;;;;;;5071951;28;20270;-76
2021/12/04 09:30:36;;;;;;;20.95;7.30;;;19.40;99.90;;;;;;5064169;28;20649;-75
2021/12/04 09:33:32;;;;;;;13.80;7.18;;;19.50;99.90;;;;;;5065905;28;20217;-76
2021/12/04 09:36:26;;;;;;;17.13;7.57;;;19.50;99.90;;;;;;5070445;28;20279;-74
2021/12/04 10:01:43;;;;;;;18.27;6.75;;;19.40;99.90;;;;;;5066480;28;20211;-79
2021/12/04 10:15:56;;;;;;;16.42;5.38;;;19.40;99.90;;;;;;5053881;28;20200;-74
2021/12/04 10:21:30;;;;;;;11.25;4.10;;;19.40;99.90;;;;;;5065075;28;20182;-74
2021/12/04 10:32:41;;;;;;;13.68;4.07;;;19.00;99.90;;;;;;5043162;28;20239;-77
2021/12/04 10:35:18;;;;;;;16.65;3.80;;;18.90;99.90;;;;;;5066440;28;20599;-74
2021/12/04 10:37:56;;;;;;;14.85;3.95;;;18.90;99.90;;;;;;5068259;28;20239;-75
2021/12/04 10:40:36;;;;;;;11.77;3.55;;;18.80;99.90;;;;;;5069941;28;20266;-75
2021/12/04 10:43:11;;;;;;;19.15;3.35;;;18.70;99.90;;;;;;5065901;28;20185;-77
2021/12/04 10:45:45;;;;;;;15.10;3.05;;;18.60;99.90;;;;;;5068447;28;20236;-75
2021/12/04 10:48:19;;;;;;;9.88;2.60;;;18.60;99.90;;;;;;5075361;28;20581;-78
2021/12/04 10:50:56;;;;;;;11.35;2.30;;;18.50;99.90;;;;;;5063908;28;20188;-75
2021/12/04 10:53:30;;;;;;;15.10;2.75;;;18.50;99.90;;;;;;5062004;28;20275;-75
2021/12/04 10:59:11;;;;;;;12.27;2.50;;;18.50;99.90;;;;;;5071181;28;20719;-77
2021/12/04 11:01:58;;;;;;;15.73;2.65;;;18.50;99.90;;;;;;5065622;28;20189;-75
2021/12/04 11:04:37;;;;;;;11.85;2.85;;;18.50;99.90;;;;;;5069826;28;20212;-78
2021/12/04 11:07:37;;;;;;;9.90;2.50;;;18.50;99.90;;;;;;5075114;28;20607;-75
2021/12/04 11:19:02;;;;;;;11.60;2.50;;;18.50;99.90;;;;;;5072627;28;20200;-74
2021/12/04 11:22:02;;;;;;;10.98;2.42;;;18.50;99.90;;;;;;5066722;28;20228;-75
2021/12/04 11:36:18;;;;;;;16.63;2.83;;;18.60;99.90;;;;;;5063900;28;20193;-75
2021/12/04 11:38:52;;;;;;;9.85;2.30;;;18.60;99.90;;;;;;5057628;28;20215;-75
2021/12/04 11:41:34;;;;;;;12.52;2.90;;;18.60;99.90;;;;;;5070270;28;20287;-75
2021/12/04 11:44:07;;;;;;;16.50;2.30;;;18.50;99.90;;;;;;5073960;28;20231;-76
2021/12/04 11:46:45;;;;;;;14.02;2.90;;;18.50;99.90;;;;;;5074192;28;20194;-75
2021/12/04 11:49:18;;;;;;;10.05;2.20;;;18.50;99.90;;;;;;5073911;28;20195;-75
2021/12/04 11:51:57;;;;;;;12.55;2.40;;;18.50;99.90;;;;;;5067257;28;20566;-75
2021/12/04 11:54:31;;;;;;;15.10;2.55;;;18.40;99.90;;;;;;5065464;28;20219;-74
2021/12/04 11:57:09;;;;;;;12.50;2.00;;;18.40;99.90;;;;;;5061351;28;20193;-75
2021/12/04 11:59:42;;;;;;;9.57;2.13;;;18.30;99.90;;;;;;5057698;28;20233;-74
2021/12/04 12:02:22;;;;;;;11.25;2.70;;;18.30;99.90;;;;;;5063256;28;20328;-76
2021/12/04 12:04:55;;;;;;;11.20;2.40;;;18.30;99.90;;;;;;5062351;28;20695;-74
2021/12/04 12:07:29;;;;;;;12.13;2.40;;;18.30;99.90;;;;;;5063611;28;20197;-74
2021/12/04 12:10:09;;;;;;;9.13;2.00;;;18.20;99.90;;;;;;5061710;28;20236;-75
2021/12/04 12:12:43;;;;;;;12.85;2.50;;;18.20;99.90;;;;;;5060806;28;20250;-75
2021/12/04 12:15:28;;;;;;;12.70;2.17;;;18.10;99.90;;;;;;5059799;28;20188;-75
2021/12/04 12:18:11;;;;;;;11.70;2.10;;;18.10;99.90;;;;;;5056789;28;20272;-76
2021/12/04 12:20:46;;;;;;;12.20;2.38;;;18.00;99.90;;;;;;5063717;28;20207;-75
2021/12/04 12:23:20;;;;;;;12.07;2.00;;;17.90;99.90;;;;;;5061824;28;20196;-75
2021/12/04 12:26:02;;;;;;;15.65;2.70;;;17.80;99.90;;;;;;5070319;28;20232;-75
2021/12/04 12:31:58;;;;;;;12.55;2.33;;;17.70;99.90;;;;;;5073494;28;20188;-75
2021/12/04 12:37:22;;;;;;;12.85;2.35;;;17.60;99.90;;;;;;5066753;28;20406;-74
2021/12/04 12:39:58;;;;;;;12.88;2.28;;;17.60;99.90;;;;;;5072803;28;20189;-76
2021/12/04 12:42:32;;;;;;;8.10;1.90;;;17.60;99.90;;;;;;5073051;28;20811;-75
2021/12/04 12:45:20;;;;;;;14.15;2.30;;;17.70;99.90;;;;;;5073115;28;20224;-75
2021/12/04 12:47:53;;;;;;;10.52;2.22;;;17.70;99.90;;;;;;5067398;28;20193;-75
2021/12/04 12:50:34;;;;;;;14.93;2.22;;;17.80;99.90;;;;;;5064973;28;20190;-74
2021/12/04 12:53:07;;;;;;;7.53;1.90;;;17.90;99.90;;;;;;5072319;28;20184;-74
2021/12/04 12:55:38;;;;;;;12.75;1.95;;;18.00;99.90;;;;;;5070915;28;20193;-75
2021/12/04 12:58:19;;;;;;;9.90;1.70;;;18.00;99.90;;;;;;5072853;28;20185;-74
2021/12/04 13:12:07;;;;;;;12.15;2.40;;;18.00;99.90;;;;;;5067237;28;20185;-73
2021/12/04 13:14:50;;;;;;;9.85;2.30;;;18.00;99.90;;;;;;5072867;28;20200;-74
2021/12/04 13:17:22;;;;;;;8.48;1.60;;;18.00;99.90;;;;;;5062786;28;20260;-75
2021/12/04 13:19:54;;;;;;;8.70;1.98;;;17.90;99.90;;;;;;5070233;28;20181;-73
2021/12/04 13:22:29;;;;;;;7.40;1.65;;;17.90;99.90;;;;;;5072301;28;20193;-73
2021/12/04 13:25:02;;;;;;;9.00;2.17;;;17.90;99.90;;;;;;5071731;28;20212;-73
2021/12/04 13:30:07;;;;;;;7.35;1.80;;;18.00;99.90;;;;;;5071078;28;20657;-74
2021/12/04 13:32:40;;;;;;;10.50;2.10;;;18.00;99.90;;;;;;5069974;28;20188;-76
2021/12/04 13:35:14;;;;;;;9.57;1.75;;;18.00;99.90;;;;;;5072138;28;20196;-74
2021/12/04 13:37:47;;;;;;;10.23;1.85;;;18.10;99.90;;;;;;5066832;28;20181;-74
2021/12/04 13:40:21;;;;;;;8.98;2.03;;;18.10;99.90;;;;;;5070492;28;20193;-78
2021/12/04 13:42:51;;;;;;;12.13;2.30;;;18.00;99.90;;;;;;5070969;28;20276;-74
2021/12/04 13:45:24;;;;;;;8.25;2.17;;;18.10;99.90;;;;;;5070116;28;20236;-76
2021/12/04 13:47:56;;;;;;;10.95;2.10;;;18.10;99.90;;;;;;5072586;28;20663;-74
2021/12/04 13:50:48;;;;;;;11.02;1.77;;;18.10;99.90;;;;;;5070020;28;20566;-73
2021/12/04 13:53:25;;;;;;;11.75;2.22;;;18.20;99.90;;;;;;5072048;28;20236;-74
2021/12/04 13:55:58;;;;;;;6.93;1.77;;;18.20;99.90;;;;;;5072420;28;20254;-74
2021/12/04 13:58:30;;;;;;;11.82;1.90;;;18.20;99.90;;;;;;5071853;28;20193;-73
2021/12/04 14:01:06;;;;;;;9.85;1.80;;;18.30;99.90;;;;;;5067100;28;20192;-73
2021/12/04 14:03:38;;;;;;;9.15;1.85;;;18.30;99.90;;;;;;5068829;28;20193;-75
2021/12/04 14:06:22;;;;;;;9.68;2.00;;;18.30;99.90;;;;;;5064835;28;20216;-75
2021/12/04 14:09:02;;;;;;;7.28;1.55;;;18.40;99.90;;;;;;5071666;28;20192;-73
2021/12/04 14:11:36;;;;;;;10.35;1.45;;;18.40;99.90;;;;;;5072341;28;20193;-74
2021/12/04 14:14:14;;;;;;;9.77;1.70;;;18.50;99.90;;;;;;5061017;28;20194;-73
2021/12/04 14:16:45;;;;;;;7.55;1.60;;;18.50;99.90;;;;;;5071868;28;20562;-76
2021/12/04 14:19:21;;;;;;;8.27;1.60;;;18.50;99.90;;;;;;5069794;28;20196;-76
2021/12/04 14:22:08;;;;;;;10.48;1.73;;;18.50;99.90;;;;;;5068580;28;20237;-74
2021/12/04 14:24:44;;;;;;;9.07;1.58;;;18.50;99.90;;;;;;5062057;28;20239;-75
2021/12/04 14:27:23;;;;;;;6.20;1.30;;;18.50;99.90;;;;;;5068015;28;20189;-78
2021/12/04 14:29:57;;;;;;;8.00;1.17;;;18.50;99.90;;;;;;5064863;28;20201;-75
2021/12/04 14:32:30;;;;;;;12.88;1.60;;;18.50;99.90;;;;;;5069052;28;20254;-74
2021/12/04 14:35:02;;;;;;;4.65;1.40;;;18.50;99.90;;;;;;5060771;28;20249;-74
2021/12/04 14:37:36;;;;;;;6.72;1.25;;;18.60;99.90;;;;;;5067522;28;20190;-75
2021/12/04 14:40:14;;;;;;;6.97;1.65;;;18.50;99.90;;;;;;5071920;28;20192;-77
2021/12/04 14:42:45;;;;;;;8.18;1.67;;;18.60;99.90;;;;;;5065404;28;20188;-75
2021/12/04 14:45:20;;;;;;;5.88;1.73;;;18.60;99.90;;;;;;5067495;28;20232;-74
2021/12/04 14:47:53;;;;;;;6.13;1.20;;;18.60;99.90;;;;;;5052523;28;20199;-77
2021/12/04 14:50:26;;;;;;;7.45;1.70;;;18.60;99.90;;;;;;5065645;28;20197;-75
2021/12/04 14:52:59;;;;;;;4.05;1.42;;;18.60;99.90;;;;;;5071946;28;20216;-79
2021/12/04 14:55:34;;;;;;;8.10;1.67;;;18.60;99.90;;;;;;5071058;28;20188;-79
2021/12/04 14:58:08;;;;;;;8.23;1.85;;;18.70;99.90;;;;;;5069053;28;20570;-78
2021/12/04 15:00:42;;;;;;;9.32;1.50;;;18.70;99.90;;;;;;5067314;28;20220;-80
2021/12/04 15:03:16;;;;;;;9.50;1.38;;;18.60;99.90;;;;;;5067071;28;20523;-80
2021/12/04 15:05:48;;;;;;;11.50;1.52;;;18.60;99.90;;;;;;5074258;28;20208;-79
2021/12/04 15:08:22;;;;;;;7.20;1.58;;;18.60;99.90;;;;;;5075027;28;20219;-74
2021/12/04 15:11:16;;;;;;;9.73;1.90;;;18.50;99.90;;;;;;5071828;28;20231;-79
2021/12/04 15:14:21;;;;;;;7.32;1.42;;;18.50;99.90;;;;;;5064730;28;20200;-80
2021/12/04 15:16:58;;;;;;;6.60;1.67;;;18.40;99.90;;;;;;5072958;28;20724;-80
2021/12/04 15:19:39;;;;;;;9.20;1.50;;;18.40;99.90;;;;;;5065753;28;20661;-74
2021/12/04 15:22:17;;;;;;;9.48;1.33;;;18.50;99.90;;;;;;5075292;28;20192;-75
2021/12/04 15:24:48;;;;;;;11.55;1.38;;;18.50;99.90;;;;;;5068903;28;20226;-74
2021/12/04 15:27:24;;;;;;;9.05;1.60;;;18.50;99.90;;;;;;5069898;28;20200;-75
2021/12/04 15:29:55;;;;;;;12.55;1.60;;;18.50;99.90;;;;;;5072291;28;20185;-75
2021/12/04 15:32:30;;;;;;;8.32;1.75;;;18.50;99.90;;;;;;5068600;28;20251;-76
2021/12/04 15:35:07;;;;;;;7.00;1.52;;;18.40;99.90;;;;;;5072434;28;20546;-76